Time;durP1;ratioP1;P1;durP2;ratioP2;P2;SDS_P1;SDS_P2;PMS_P1;PMS_P2;Temp;Humidity;BMP_temperature;BMP_pressure;BME280_temperature;BME280_humidity;BME280_pressure;Samples;Min_cycle;Max_cycle;Signal;HPM_P1;HPM_P2
2023/09/30 00:02:06;;;;;;;6.93;3.75;;;;;;;19.56;63.93;98507.78;5114590;28;20262;-56
2023/09/30 00:04:32;;;;;;;7.20;4.07;;;;;;;19.37;64.11;98489.69;5114226;28;20175;-56
2023/09/30 00:06:57;;;;;;;9.02;4.00;;;;;;;19.50;63.60;98501.38;5114185;28;20175;-57
2023/09/30 00:09:22;;;;;;;7.28;4.45;;;;;;;19.45;63.82;98505.44;5114135;28;20538;-57
2023/09/30 00:11:48;;;;;;;5.57;4.22;;;;;;;19.36;64.12;98493.28;5113986;28;20199;-57
2023/09/30 00:14:14;;;;;;;7.45;4.32;;;;;;;19.42;63.60;98513.66;5114396;28;20230;-57
2023/09/30 00:16:39;;;;;;;7.13;4.05;;;;;;;19.44;62.94;98503.81;5114304;28;20247;-57
2023/09/30 00:19:05;;;;;;;11.48;4.47;;;;;;;19.32;63.69;98486.69;5114198;28;20232;-57
2023/09/30 00:21:31;;;;;;;6.15;4.45;;;;;;;19.21;63.97;98469.44;5114082;28;20553;-57
2023/09/30 00:23:56;;;;;;;10.68;4.53;;;;;;;19.32;64.14;98486.69;5114136;28;20206;-57
2023/09/30 00:26:22;;;;;;;10.73;4.60;;;;;;;19.26;64.41;98482.09;5114031;28;20245;-57
2023/09/30 00:28:47;;;;;;;6.68;4.03;;;;;;;19.28;63.80;98474.88;5114053;28;20586;-57
2023/09/30 00:31:13;;;;;;;6.45;4.05;;;;;;;19.19;64.03;98470.56;5113759;28;20263;-57
2023/09/30 00:33:38;;;;;;;7.32;3.95;;;;;;;19.21;64.24;98476.47;5113509;28;20194;-57
2023/09/30 00:36:11;;;;;;;10.30;4.85;;;;;;;19.16;64.20;98460.34;5113806;28;20175;-57
2023/09/30 00:38:37;;;;;;;8.00;4.70;;;;;;;19.09;64.17;98446.22;5113585;28;20620;-57
2023/09/30 00:41:03;;;;;;;7.18;3.95;;;;;;;18.98;64.58;98447.34;5113832;28;20167;-57
2023/09/30 00:43:28;;;;;;;8.35;4.00;;;;;;;19.07;63.93;98451.63;5113818;28;20564;-57
2023/09/30 00:46:14;;;;;;;8.52;4.70;;;;;;;19.14;63.90;98473.66;5113818;28;20171;-57
2023/09/30 00:48:39;;;;;;;9.85;5.05;;;;;;;19.23;64.47;98492.91;5070443;28;20193;-57
2023/09/30 00:51:06;;;;;;;9.27;4.00;;;;;;;19.18;64.84;98492.53;5070444;28;20641;-57
2023/09/30 00:53:32;;;;;;;6.22;4.00;;;;;;;18.86;65.84;98471.34;5070423;28;20250;-57
2023/09/30 00:55:58;;;;;;;4.88;4.22;;;;;;;19.00;65.41;98470.78;5070425;28;20321;-57
2023/09/30 00:58:28;;;;;;;6.10;4.13;;;;;;;19.05;65.94;98497.38;5070323;28;20658;-57
2023/09/30 01:00:55;;;;;;;7.53;4.03;;;;;;;18.91;65.88;98476.94;5070267;28;20226;-57
2023/09/30 01:03:22;;;;;;;7.50;4.50;;;;;;;18.92;65.74;98462.84;5070245;28;20275;-57
2023/09/30 01:05:49;;;;;;;5.57;3.90;;;;;;;19.16;65.87;98494.47;5070253;28;20659;-57
2023/09/30 01:08:16;;;;;;;10.57;4.20;;;;;;;18.99;65.90;98487.47;5070133;28;20279;-57
2023/09/30 01:10:42;;;;;;;8.07;4.10;;;;;;;18.90;65.84;98477.94;5070091;28;20244;-57
2023/09/30 01:13:07;;;;;;;9.93;5.00;;;;;;;18.85;66.54;98498.56;5069877;28;20199;-57
2023/09/30 01:15:33;;;;;;;8.30;4.18;;;;;;;18.82;66.54;98483.16;5070250;28;20184;-57
2023/09/30 01:17:58;;;;;;;9.60;4.35;;;;;;;18.86;66.58;98494.94;5069911;28;20185;-58
2023/09/30 01:20:24;;;;;;;6.25;4.03;;;;;;;18.65;67.21;98481.38;5104870;28;20187;-58
2023/09/30 01:22:49;;;;;;;9.60;4.25;;;;;;;18.73;67.41;98499.78;5112670;28;20523;-58
2023/09/30 01:25:15;;;;;;;12.20;4.32;;;;;;;18.66;68.06;98498.75;5112956;28;20347;-58
2023/09/30 01:27:40;;;;;;;5.10;3.88;;;;;;;18.51;68.52;98495.03;5112938;28;20175;-58
2023/09/30 01:30:10;;;;;;;5.18;4.60;;;;;;;18.27;69.12;98477.31;5112831;28;20548;-57
2023/09/30 01:32:36;;;;;;;6.88;4.22;;;;;;;18.37;69.86;98503.44;5112642;28;20285;-57
2023/09/30 01:35:02;;;;;;;8.40;4.45;;;;;;;18.06;70.28;98457.59;5112695;28;20235;-57
2023/09/30 01:37:30;;;;;;;5.10;3.85;;;;;;;18.17;70.50;98476.56;5112667;28;20182;-57
2023/09/30 01:39:56;;;;;;;4.20;3.80;;;;;;;18.14;70.88;98486.50;5112583;28;20199;-57
2023/09/30 01:42:21;;;;;;;5.82;4.55;;;;;;;18.10;71.07;98485.16;5112921;28;20245;-57
2023/09/30 01:44:47;;;;;;;8.38;4.50;;;;;;;18.10;70.92;98474.69;5111752;28;20640;-58
2023/09/30 01:47:13;;;;;;;6.65;4.78;;;;;;;18.17;71.03;98497.50;5112537;28;20171;-58
2023/09/30 01:49:38;;;;;;;9.52;4.20;;;;;;;18.02;70.87;98462.31;5069152;28;20293;-57
2023/09/30 01:52:04;;;;;;;11.43;4.90;;;;;;;18.10;70.75;98470.28;5069308;28;20227;-57
2023/09/30 01:54:29;;;;;;;8.95;3.85;;;;;;;17.99;71.33;98464.44;5069268;28;20207;-57
2023/09/30 01:56:55;;;;;;;7.82;4.47;;;;;;;17.97;70.79;98448.88;5069353;28;20188;-57
2023/09/30 01:59:21;;;;;;;10.85;4.65;;;;;;;18.17;70.88;98486.19;5069104;28;20188;-57
2023/09/30 02:01:47;;;;;;;10.20;4.97;;;;;;;18.00;71.70;98473.91;5069062;28;20220;-57
2023/09/30 02:04:15;;;;;;;8.10;4.03;;;;;;;17.84;71.69;98453.66;5069026;28;20280;-57
2023/09/30 02:06:40;;;;;;;6.05;4.03;;;;;;;18.01;71.65;98486.06;5068955;28;20192;-57
2023/09/30 02:09:08;;;;;;;12.98;4.22;;;;;;;18.04;71.89;98491.00;5068887;28;20188;-57
2023/09/30 02:11:34;;;;;;;6.88;3.97;;;;;;;17.97;72.12;98479.47;5068741;28;20212;-57
2023/09/30 02:13:59;;;;;;;7.15;4.80;;;;;;;17.82;72.65;98465.25;5068783;28;20200;-57
2023/09/30 02:16:24;;;;;;;7.00;4.00;;;;;;;17.80;72.79;98467.19;5068833;28;20216;-57
2023/09/30 02:18:50;;;;;;;7.13;4.35;;;;;;;17.88;73.37;98490.81;5068721;28;20180;-57
2023/09/30 02:21:16;;;;;;;6.22;4.70;;;;;;;17.65;73.59;98455.56;5101505;28;20572;-57
2023/09/30 02:23:41;;;;;;;12.38;4.43;;;;;;;17.78;73.89;98477.00;5111810;28;20174;-57
2023/09/30 02:26:07;;;;;;;7.53;4.38;;;;;;;17.68;74.12;98469.22;5111818;28;20241;-57
2023/09/30 02:28:34;;;;;;;7.72;4.28;;;;;;;17.73;74.29;98493.13;5111609;28;20544;-57
2023/09/30 02:31:00;;;;;;;9.18;4.78;;;;;;;17.48;75.01;98459.81;5111616;28;20241;-57
2023/09/30 02:33:26;;;;;;;8.20;4.38;;;;;;;17.36;75.07;98452.28;5111612;28;20224;-57
2023/09/30 02:35:51;;;;;;;7.38;4.10;;;;;;;17.36;75.61;98447.03;5111634;28;20171;-57
2023/09/30 02:38:17;;;;;;;5.50;4.05;;;;;;;17.30;75.91;98447.63;5111622;28;20554;-57
2023/09/30 02:40:46;;;;;;;11.18;4.03;;;;;;;17.32;75.43;98458.78;5111589;28;20182;-57
2023/09/30 02:43:13;;;;;;;9.02;4.40;;;;;;;17.45;75.36;98464.53;5110805;28;20171;-57
2023/09/30 02:45:38;;;;;;;5.93;4.30;;;;;;;17.61;75.56;98483.03;5111494;28;20175;-57
2023/09/30 02:48:04;;;;;;;11.02;4.65;;;;;;;17.56;75.71;98487.88;5111623;28;20227;-58
2023/09/30 02:50:30;;;;;;;5.38;4.47;;;;;;;17.34;75.76;98449.00;5111363;28;20183;-58
2023/09/30 02:52:55;;;;;;;9.50;4.47;;;;;;;17.46;75.40;98468.78;5111140;28;20199;-58
2023/09/30 02:55:21;;;;;;;8.25;4.80;;;;;;;17.52;75.49;98483.91;5111253;28;20171;-56
2023/09/30 02:57:46;;;;;;;10.18;5.00;;;;;;;17.33;76.08;98452.59;5111119;28;20213;-57
2023/09/30 03:00:33;;;;;;;10.02;4.80;;;;;;;17.27;76.62;98464.47;5111297;28;20539;-57
2023/09/30 03:02:59;;;;;;;10.25;4.82;;;;;;;17.21;76.61;98435.44;5110251;28;20327;-57
2023/09/30 03:05:24;;;;;;;7.65;4.63;;;;;;;17.24;76.37;98445.59;5110958;28;20310;-57
2023/09/30 03:07:53;;;;;;;7.20;4.43;;;;;;;17.22;76.58;98461.47;5111532;28;20258;-57
2023/09/30 03:10:23;;;;;;;4.80;3.80;;;;;;;17.28;77.31;98475.72;5111212;28;20272;-57
2023/09/30 03:13:01;;;;;;;7.75;4.93;;;;;;;17.14;77.92;98468.38;5111062;28;20206;-57
2023/09/30 03:15:28;;;;;;;6.78;4.35;;;;;;;17.16;78.40;98477.72;5111161;28;20183;-57
2023/09/30 03:17:55;;;;;;;6.47;4.13;;;;;;;16.89;78.55;98437.63;5111187;28;20246;-57
2023/09/30 03:20:21;;;;;;;8.55;4.90;;;;;;;17.03;79.10;98474.59;5111049;28;20691;-57
2023/09/30 03:22:47;;;;;;;8.48;4.47;;;;;;;16.86;79.24;98459.66;5110643;28;20546;-57
2023/09/30 03:25:17;;;;;;;7.38;4.80;;;;;;;17.06;79.01;98479.53;5110981;28;20179;-57
2023/09/30 03:27:43;;;;;;;8.50;4.57;;;;;;;16.83;79.45;98438.22;5110947;28;20178;-58
2023/09/30 03:30:11;;;;;;;6.93;4.63;;;;;;;16.97;80.33;98485.63;5111220;28;20178;-57
2023/09/30 03:32:38;;;;;;;4.85;4.15;;;;;;;16.63;81.16;98453.16;5111191;28;20310;-57
2023/09/30 03:35:10;;;;;;;6.15;4.40;;;;;;;16.70;81.56;98474.28;5110902;28;20281;-57
2023/09/30 03:37:36;;;;;;;7.15;4.90;;;;;;;16.84;80.91;98486.94;5110948;28;20312;-57
2023/09/30 03:40:11;;;;;;;12.90;4.60;;;;;;;16.57;81.34;98447.66;5110854;28;20642;-57
2023/09/30 03:42:39;;;;;;;6.88;4.30;;;;;;;16.49;81.82;98447.53;5110886;28;20183;-57
2023/09/30 03:45:07;;;;;;;11.57;4.60;;;;;;;16.47;82.26;98465.97;5110846;28;20189;-57
2023/09/30 03:47:34;;;;;;;8.68;4.57;;;;;;;16.50;81.96;98462.25;5110741;28;20167;-57
2023/09/30 03:49:59;;;;;;;7.72;4.32;;;;;;;16.62;82.65;98482.03;5110555;28;20203;-57
2023/09/30 03:52:26;;;;;;;9.07;4.80;;;;;;;16.62;82.45;98482.81;5110700;28;20235;-57
2023/09/30 03:54:52;;;;;;;9.48;4.65;;;;;;;16.48;82.62;98458.94;5110759;28;20179;-57
2023/09/30 03:57:18;;;;;;;7.80;4.72;;;;;;;16.30;83.07;98444.91;5110667;28;20221;-57
2023/09/30 03:59:46;;;;;;;5.95;4.65;;;;;;;16.40;83.37;98456.22;5110722;28;20207;-57
2023/09/30 04:02:11;;;;;;;7.47;5.15;;;;;;;16.53;82.88;98482.84;5110642;28;20755;-57
2023/09/30 04:04:37;;;;;;;7.45;4.50;;;;;;;16.36;83.49;98467.84;5110444;28;20198;-57
2023/09/30 04:07:05;;;;;;;7.10;4.28;;;;;;;16.44;83.60;98484.50;5111498;28;20172;-57
2023/09/30 04:09:31;;;;;;;9.15;5.00;;;;;;;16.34;83.42;98456.72;5114326;28;20555;-57
2023/09/30 04:11:57;;;;;;;8.00;4.32;;;;;;;16.18;83.44;98449.47;5114299;28;20195;-57
2023/09/30 04:14:22;;;;;;;6.07;4.50;;;;;;;16.37;84.06;98487.78;5114468;28;20523;-58
2023/09/30 04:16:48;;;;;;;8.88;4.32;;;;;;;16.44;83.58;98488.94;5113988;28;20178;-57
2023/09/30 04:19:13;;;;;;;7.75;4.47;;;;;;;16.22;83.58;98442.19;5114127;28;20198;-57
2023/09/30 04:21:39;;;;;;;5.22;4.15;;;;;;;16.34;84.04;98462.78;5113883;28;20550;-58
2023/09/30 04:24:06;;;;;;;6.97;4.75;;;;;;;16.50;83.71;98483.16;5113825;28;20236;-57
2023/09/30 04:26:32;;;;;;;5.38;4.60;;;;;;;16.29;83.82;98449.31;5114043;28;20180;-57
2023/09/30 04:28:57;;;;;;;8.27;5.20;;;;;;;16.44;84.67;98489.72;5113707;28;20186;-57
2023/09/30 04:31:23;;;;;;;10.57;4.50;;;;;;;16.43;84.20;98472.41;5114124;28;20195;-58
2023/09/30 04:33:51;;;;;;;5.25;4.72;;;;;;;16.20;84.18;98459.78;5113946;28;20657;-57
2023/09/30 04:36:16;;;;;;;7.13;4.30;;;;;;;16.36;84.89;98496.59;5113946;28;20286;-57
2023/09/30 04:38:43;;;;;;;9.73;5.07;;;;;;;16.26;84.35;98469.69;5113653;28;20250;-57
2023/09/30 04:41:10;;;;;;;7.40;4.30;;;;;;;16.32;83.72;98463.91;5070519;28;20193;-57
2023/09/30 04:43:38;;;;;;;6.10;4.25;;;;;;;16.41;83.88;98489.19;5070258;28;20220;-57
2023/09/30 04:46:07;;;;;;;7.53;4.47;;;;;;;16.30;83.18;98460.59;5070709;28;20615;-57
2023/09/30 04:48:32;;;;;;;8.90;4.60;;;;;;;16.32;82.93;98479.56;5070530;28;20292;-57
2023/09/30 04:50:58;;;;;;;8.00;4.55;;;;;;;16.50;83.25;98506.66;5070413;28;20819;-57
2023/09/30 04:53:23;;;;;;;10.73;4.65;;;;;;;16.49;83.19;98503.22;5070561;28;20280;-57
2023/09/30 04:55:50;;;;;;;9.02;4.95;;;;;;;16.23;83.80;98475.16;5030388;28;20190;-57
2023/09/30 04:58:16;;;;;;;8.75;4.43;;;;;;;16.28;84.77;98505.09;5030475;28;20194;-57
2023/09/30 05:00:42;;;;;;;12.43;4.88;;;;;;;16.35;84.49;98510.59;5030446;28;20664;-56
2023/09/30 05:03:08;;;;;;;6.90;4.72;;;;;;;16.23;85.13;98507.31;5030298;28;20209;-56
2023/09/30 05:05:34;;;;;;;7.38;4.57;;;;;;;16.26;85.19;98507.03;5030367;28;20208;-57
2023/09/30 05:07:59;;;;;;;7.80;4.72;;;;;;;16.40;84.03;98505.84;5030318;28;20292;-57
2023/09/30 05:10:25;;;;;;;7.50;4.72;;;;;;;16.37;84.04;98495.63;4971422;28;20275;-57
2023/09/30 05:12:53;;;;;;;8.73;3.85;;;;;;;16.37;83.99;98493.84;4971285;28;20306;-57
2023/09/30 05:15:20;;;;;;;7.10;4.43;;;;;;;16.46;84.58;98510.50;4971546;28;20184;-57
2023/09/30 05:17:46;;;;;;;7.72;5.43;;;;;;;16.42;83.66;98485.63;4970723;28;20212;-57
2023/09/30 05:20:12;;;;;;;8.98;4.00;;;;;;;16.64;83.07;98525.34;4970964;28;20188;-57
2023/09/30 05:22:40;;;;;;;6.57;4.65;;;;;;;16.54;82.48;98494.94;4971238;28;20194;-57
2023/09/30 05:25:07;;;;;;;5.22;4.43;;;;;;;16.61;82.15;98502.09;4981618;28;20235;-57
2023/09/30 05:27:32;;;;;;;9.15;4.40;;;;;;;16.69;82.45;98517.06;4990583;28;20192;-57
2023/09/30 05:29:58;;;;;;;6.28;4.38;;;;;;;16.67;82.31;98498.91;4990637;28;20258;-57
2023/09/30 05:32:23;;;;;;;8.85;4.28;;;;;;;16.59;82.08;98490.97;4996226;28;20228;-57
2023/09/30 05:34:48;;;;;;;7.65;4.55;;;;;;;16.59;82.46;98505.78;5029920;28;20178;-57
2023/09/30 05:37:14;;;;;;;7.50;4.65;;;;;;;16.44;83.42;98494.97;5029869;28;20653;-58
2023/09/30 05:39:40;;;;;;;9.07;4.53;;;;;;;16.35;83.12;98495.78;5029696;28;20229;-58
2023/09/30 05:42:06;;;;;;;6.93;4.75;;;;;;;16.50;83.36;98509.25;5029681;28;20225;-58
2023/09/30 05:44:32;;;;;;;10.35;4.55;;;;;;;16.62;82.93;98537.69;5029684;28;20233;-58
2023/09/30 05:46:59;;;;;;;8.68;4.72;;;;;;;16.45;82.83;98511.47;5034807;28;20213;-58
2023/09/30 05:49:25;;;;;;;5.95;4.32;;;;;;;16.67;81.82;98526.84;5102585;28;20191;-58
2023/09/30 05:51:50;;;;;;;8.32;4.45;;;;;;;16.74;81.64;98528.72;5112537;28;20199;-58
2023/09/30 05:54:16;;;;;;;8.18;4.15;;;;;;;16.70;81.69;98505.66;5112241;28;20183;-58
2023/09/30 05:56:43;;;;;;;10.07;4.45;;;;;;;16.78;81.52;98526.66;5112824;28;20187;-58
2023/09/30 05:59:08;;;;;;;8.32;4.15;;;;;;;16.80;81.16;98516.91;5112521;28;20232;-58
2023/09/30 06:01:35;;;;;;;9.32;4.80;;;;;;;16.88;81.13;98538.75;5112458;28;20179;-58
2023/09/30 06:04:01;;;;;;;12.45;4.43;;;;;;;17.01;80.21;98544.50;5112350;28;20180;-57
2023/09/30 06:06:30;;;;;;;9.70;4.78;;;;;;;16.95;80.44;98531.16;5112237;28;20175;-59
2023/09/30 06:08:58;;;;;;;6.03;4.75;;;;;;;16.86;80.04;98501.47;5112163;28;20177;-57
2023/09/30 06:11:24;;;;;;;11.25;4.50;;;;;;;17.12;79.67;98528.66;5112044;28;20203;-56
2023/09/30 06:13:55;;;;;;;12.15;4.72;;;;;;;16.93;79.07;98493.91;5111786;28;20267;-57
2023/09/30 06:16:20;;;;;;;6.97;4.45;;;;;;;16.97;78.69;98488.22;5068907;28;20192;-57
2023/09/30 06:18:46;;;;;;;6.43;4.95;;;;;;;17.18;77.98;98501.09;5068988;28;20654;-57
2023/09/30 06:21:16;;;;;;;9.85;4.30;;;;;;;17.24;77.72;98490.88;5068908;28;20193;-57
2023/09/30 06:23:43;;;;;;;6.00;4.70;;;;;;;17.52;76.90;98516.13;5068916;28;20180;-57
2023/09/30 06:26:09;;;;;;;6.80;4.45;;;;;;;17.60;77.01;98525.88;5068831;28;20275;-57
2023/09/30 06:28:40;;;;;;;7.60;4.15;;;;;;;17.60;76.17;98515.41;5068805;28;20637;-57
2023/09/30 06:31:09;;;;;;;7.57;4.65;;;;;;;17.78;75.42;98518.88;5068296;28;20615;-57
2023/09/30 06:33:39;;;;;;;5.70;3.80;;;;;;;17.96;74.71;98524.97;5048546;28;20217;-57
2023/09/30 06:36:13;;;;;;;8.88;3.88;;;;;;;17.99;73.74;98524.66;5048557;28;20192;-57
2023/09/30 06:38:39;;;;;;;6.72;4.60;;;;;;;18.26;73.09;98550.78;5048691;28;20185;-57
2023/09/30 06:41:05;;;;;;;7.70;4.35;;;;;;;18.23;73.00;98532.75;5048600;28;20197;-58
2023/09/30 06:43:32;;;;;;;9.13;4.50;;;;;;;18.16;71.89;98508.13;5048588;28;20173;-58
2023/09/30 06:45:57;;;;;;;8.30;4.35;;;;;;;18.40;71.17;98529.31;5048405;28;20571;-58
2023/09/30 06:48:23;;;;;;;9.30;4.45;;;;;;;18.44;71.06;98514.97;5067154;28;20185;-56
2023/09/30 06:50:49;;;;;;;10.55;3.92;;;;;;;18.70;70.96;98542.00;5068321;28;20726;-57
2023/09/30 06:53:16;;;;;;;8.25;4.57;;;;;;;18.62;70.23;98503.47;5068514;28;20250;-57
2023/09/30 06:55:45;;;;;;;6.72;4.32;;;;;;;18.83;69.68;98526.72;5068554;28;20184;-57
2023/09/30 06:58:11;;;;;;;7.60;4.10;;;;;;;19.00;68.70;98536.34;5068282;28;20223;-57
2023/09/30 07:00:38;;;;;;;6.03;4.03;;;;;;;19.28;68.29;98556.22;5068453;28;20198;-57
2023/09/30 07:03:03;;;;;;;8.05;4.40;;;;;;;19.26;67.39;98540.63;5068479;28;20173;-57
2023/09/30 07:05:29;;;;;;;6.40;4.70;;;;;;;19.50;66.86;98548.63;5068577;28;20191;-57
2023/09/30 07:07:55;;;;;;;7.05;4.10;;;;;;;19.47;66.13;98527.13;5068381;28;20551;-57
2023/09/30 07:10:20;;;;;;;11.25;4.25;;;;;;;19.51;65.45;98513.53;5077843;28;20203;-57
2023/09/30 07:12:46;;;;;;;9.77;4.20;;;;;;;19.75;65.22;98539.88;5111201;28;20652;-57
2023/09/30 07:15:11;;;;;;;15.50;4.50;;;;;;;19.79;64.83;98527.25;5111346;28;20721;-57
2023/09/30 07:17:37;;;;;;;9.77;4.88;;;;;;;19.77;64.71;98524.75;5111234;28;20224;-57
2023/09/30 07:20:04;;;;;;;8.70;4.80;;;;;;;20.07;64.12;98547.03;5111178;28;20175;-57
2023/09/30 07:22:31;;;;;;;4.65;3.58;;;;;;;20.26;63.51;98559.88;5048259;28;20292;-57
2023/09/30 07:24:57;;;;;;;5.95;4.32;;;;;;;20.32;63.16;98560.06;5048212;28;20332;-57
2023/09/30 07:27:23;;;;;;;7.22;4.28;;;;;;;20.45;62.48;98552.53;5048080;28;20193;-57
2023/09/30 07:29:48;;;;;;;7.40;4.13;;;;;;;20.48;61.50;98531.19;5048120;28;20184;-57
2023/09/30 07:32:14;;;;;;;9.13;3.85;;;;;;;20.82;61.15;98566.03;5048022;28;20201;-57
2023/09/30 07:34:40;;;;;;;7.60;4.40;;;;;;;20.72;60.50;98531.19;5048005;28;20189;-57
2023/09/30 07:37:05;;;;;;;9.95;4.68;;;;;;;20.98;59.73;98552.06;5048035;28;20181;-57
2023/09/30 07:39:31;;;;;;;6.55;4.43;;;;;;;20.99;59.76;98535.28;5047999;28;20193;-57
2023/09/30 07:41:56;;;;;;;8.20;4.13;;;;;;;21.33;59.44;98564.84;5049057;28;20268;-57
2023/09/30 07:44:22;;;;;;;11.32;4.80;;;;;;;21.32;59.09;98545.56;5051937;28;20272;-57
2023/09/30 07:46:47;;;;;;;11.55;3.92;;;;;;;21.53;58.60;98558.19;5051888;28;20192;-57
2023/09/30 07:49:12;;;;;;;5.90;4.22;;;;;;;21.48;58.04;98527.09;5051831;28;20625;-57
2023/09/30 07:51:41;;;;;;;7.85;4.43;;;;;;;21.76;57.28;98554.66;5051687;28;20243;-57
2023/09/30 07:54:06;;;;;;;8.90;4.35;;;;;;;21.77;57.31;98532.59;5051501;28;20193;-57
2023/09/30 07:56:32;;;;;;;8.43;4.90;;;;;;;21.95;56.27;98535.78;5051675;28;20196;-57
2023/09/30 07:58:57;;;;;;;6.18;4.45;;;;;;;22.13;56.51;98543.41;5057885;28;20182;-58
2023/09/30 08:01:22;;;;;;;9.05;4.25;;;;;;;22.22;55.19;98539.75;5114768;28;20175;-57
2023/09/30 08:03:48;;;;;;;14.18;4.70;;;;;;;22.30;53.55;98540.53;5114657;28;20257;-57
2023/09/30 08:06:14;;;;;;;14.07;4.80;;;;;;;22.60;52.92;98568.69;5114628;28;20293;-58
2023/09/30 08:08:39;;;;;;;7.47;4.85;;;;;;;22.61;53.04;98546.56;5114520;28;20262;-57
2023/09/30 08:11:06;;;;;;;13.85;4.95;;;;;;;22.77;52.00;98554.38;5114332;28;20290;-58
2023/09/30 08:13:32;;;;;;;8.40;4.53;;;;;;;23.01;52.04;98569.19;5070907;28;20591;-57
2023/09/30 08:15:59;;;;;;;16.45;4.55;;;;;;;22.94;51.48;98540.03;5071129;28;20188;-57
2023/09/30 08:18:24;;;;;;;6.90;4.38;;;;;;;23.28;50.89;98568.59;5071181;28;20270;-57
2023/09/30 08:20:49;;;;;;;8.63;5.05;;;;;;;23.29;50.94;98564.94;5071248;28;20180;-57
2023/09/30 08:23:15;;;;;;;12.32;5.13;;;;;;;23.30;50.60;98540.22;5071199;28;20274;-57
2023/09/30 08:25:40;;;;;;;12.80;5.93;;;;;;;23.53;49.32;98556.78;5071180;28;20276;-57
2023/09/30 08:28:06;;;;;;;14.88;5.60;;;;;;;23.61;48.09;98552.19;5071044;28;20621;-58
2023/09/30 08:30:35;;;;;;;10.45;5.95;;;;;;;23.68;46.08;98550.50;5071075;28;20251;-57
2023/09/30 08:33:00;;;;;;;10.68;4.47;;;;;;;23.77;45.64;98550.19;5070931;28;20769;-58
2023/09/30 08:35:26;;;;;;;9.07;5.40;;;;;;;23.84;44.81;98550.25;5070957;28;20259;-57
2023/09/30 08:37:51;;;;;;;9.77;4.95;;;;;;;24.02;43.92;98577.97;5071002;28;20686;-57
2023/09/30 08:40:22;;;;;;;16.98;5.45;;;;;;;24.15;43.56;98564.09;5070938;28;20180;-58
2023/09/30 08:42:53;;;;;;;14.73;5.28;;;;;;;24.12;44.13;98550.44;5070823;28;20646;-58
2023/09/30 08:45:19;;;;;;;7.90;4.38;;;;;;;24.13;43.53;98540.47;5106181;28;20194;-57
2023/09/30 08:47:48;;;;;;;11.27;5.00;;;;;;;24.25;42.57;98548.72;5113586;28;20671;-58
2023/09/30 08:50:16;;;;;;;7.88;5.07;;;;;;;24.46;41.83;98565.47;5070492;28;20275;-57
2023/09/30 08:52:43;;;;;;;15.68;5.82;;;;;;;24.48;41.41;98567.91;5070226;28;20720;-57
2023/09/30 08:55:09;;;;;;;15.18;5.10;;;;;;;24.49;41.46;98561.63;5070583;28;20239;-57
2023/09/30 08:57:41;;;;;;;8.52;4.85;;;;;;;24.52;38.26;98551.47;5070536;28;20173;-58
2023/09/30 09:00:12;;;;;;;7.82;5.30;;;;;;;24.65;39.36;98567.50;5070463;28;20212;-58
2023/09/30 09:02:42;;;;;;;11.63;6.82;;;;;;;24.60;39.06;98555.84;5070490;28;20180;-58
2023/09/30 09:05:09;;;;;;;9.55;5.70;;;;;;;24.63;39.49;98552.81;5070350;28;20191;-58
2023/09/30 09:07:35;;;;;;;8.48;5.00;;;;;;;24.83;39.79;98570.50;5070233;28;20219;-58
2023/09/30 09:10:13;;;;;;;9.05;4.72;;;;;;;24.84;39.29;98553.63;5070267;28;20702;-58
2023/09/30 09:12:39;;;;;;;8.68;4.32;;;;;;;24.91;39.31;98572.22;5069837;28;20753;-57
2023/09/30 09:15:06;;;;;;;11.57;5.30;;;;;;;25.02;38.43;98569.84;5070129;28;20192;-56
2023/09/30 09:17:42;;;;;;;10.65;4.65;;;;;;;25.11;38.92;98567.88;5070165;28;20238;-56
2023/09/30 09:20:10;;;;;;;15.07;4.90;;;;;;;25.05;38.82;98553.59;5072289;28;20176;-58
2023/09/30 09:22:43;;;;;;;10.98;4.72;;;;;;;25.01;39.23;98535.63;5113048;28;20182;-58
2023/09/30 09:25:09;;;;;;;9.18;4.53;;;;;;;25.05;37.83;98529.75;5112758;28;20489;-58
2023/09/30 09:27:36;;;;;;;9.02;4.00;;;;;;;25.29;38.05;98571.72;5113030;28;20172;-58
2023/09/30 09:30:26;;;;;;;11.50;4.30;;;;;;;25.39;37.13;98558.97;5112632;28;20167;-58
2023/09/30 09:32:53;;;;;;;12.35;4.50;;;;;;;25.39;37.22;98553.66;5112839;28;20221;-58
2023/09/30 09:35:21;;;;;;;8.88;4.40;;;;;;;25.41;37.12;98548.97;5112832;28;20179;-56
2023/09/30 09:38:13;;;;;;;10.63;4.43;;;;;;;25.47;36.60;98548.19;5112791;28;20179;-57
2023/09/30 09:40:40;;;;;;;10.00;4.47;;;;;;;25.56;36.34;98543.56;5112747;28;20254;-57
2023/09/30 09:43:06;;;;;;;10.40;4.28;;;;;;;25.63;36.40;98542.56;5112644;28;20232;-58
2023/09/30 09:45:37;;;;;;;9.98;3.90;;;;;;;25.50;36.27;98521.31;5112655;28;20172;-58
2023/09/30 09:48:04;;;;;;;8.93;4.10;;;;;;;25.64;36.11;98527.47;5112548;28;20179;-58
2023/09/30 09:50:31;;;;;;;11.45;4.72;;;;;;;25.79;36.27;98542.25;5112273;28;21278;-58
2023/09/30 09:52:59;;;;;;;7.88;3.83;;;;;;;25.72;35.54;98514.88;5112331;28;20230;-57
2023/09/30 09:55:27;;;;;;;10.02;4.18;;;;;;;25.73;35.45;98505.91;5112496;28;20167;-58
2023/09/30 09:57:52;;;;;;;9.80;4.10;;;;;;;25.97;34.82;98531.94;5112369;28;20197;-58
2023/09/30 10:00:20;;;;;;;12.73;4.60;;;;;;;26.01;34.69;98521.75;5112304;28;20618;-57
2023/09/30 10:02:46;;;;;;;12.25;4.78;;;;;;;25.93;33.83;98501.53;5112372;28;20183;-57
2023/09/30 10:05:13;;;;;;;11.68;4.40;;;;;;;26.04;34.14;98511.56;5111512;28;20228;-57
2023/09/30 10:08:02;;;;;;;6.72;3.92;;;;;;;26.17;33.70;98531.97;5112165;28;20178;-57
2023/09/30 10:10:28;;;;;;;4.38;3.53;;;;;;;26.05;33.86;98491.97;5111660;28;20251;-57
2023/09/30 10:12:53;;;;;;;9.45;4.30;;;;;;;26.34;33.64;98531.41;5111971;28;20210;-57
2023/09/30 10:15:24;;;;;;;11.50;4.40;;;;;;;26.43;33.71;98514.31;5112094;28;20223;-57
2023/09/30 10:17:59;;;;;;;10.35;4.30;;;;;;;26.46;33.02;98513.06;5068540;28;20288;-57
2023/09/30 10:20:29;;;;;;;8.80;4.07;;;;;;;26.47;32.63;98499.59;5068852;28;20267;-57
2023/09/30 10:23:16;;;;;;;7.00;4.00;;;;;;;26.55;33.13;98515.38;5068858;28;20323;-57
2023/09/30 10:25:47;;;;;;;9.10;3.90;;;;;;;26.46;33.64;98492.66;5068856;28;20569;-57
2023/09/30 10:28:33;;;;;;;7.85;4.13;;;;;;;26.69;33.06;98527.63;5068784;28;20208;-57
2023/09/30 10:31:12;;;;;;;11.57;4.13;;;;;;;26.71;33.24;98499.00;5068735;28;20218;-57
2023/09/30 10:33:57;;;;;;;10.45;4.68;;;;;;;27.02;32.21;98509.00;5068618;28;20196;-58
2023/09/30 10:36:29;;;;;;;12.52;4.63;;;;;;;26.90;32.80;98473.47;5068545;28;20180;-58
2023/09/30 10:38:55;;;;;;;9.60;4.38;;;;;;;27.05;32.04;98471.41;5028432;28;20255;-56
2023/09/30 10:41:53;;;;;;;13.60;4.90;;;;;;;27.41;32.97;98506.31;5028662;28;20182;-57
2023/09/30 10:44:29;;;;;;;13.48;4.32;;;;;;;27.34;32.43;98466.44;4931409;29;20280;-57
2023/09/30 10:47:00;;;;;;;15.05;4.63;;;;;;;27.46;32.83;98464.78;4931377;29;20274;-58
2023/09/30 10:49:25;;;;;;;5.43;4.10;;;;;;;27.81;32.56;98507.84;4959963;28;20192;-58
2023/09/30 10:51:59;;;;;;;18.17;11.80;;;;;;;27.70;31.76;98495.16;4969770;28;20728;-58
2023/09/30 10:54:30;;;;;;;12.20;4.85;;;;;;;27.71;31.91;98473.69;4969821;28;20320;-58
2023/09/30 10:56:59;;;;;;;8.10;4.32;;;;;;;27.75;32.25;98463.44;4969684;28;20188;-58
2023/09/30 10:59:32;;;;;;;11.45;4.28;;;;;;;27.84;32.32;98462.19;4969569;28;20227;-58
2023/09/30 11:01:57;;;;;;;9.45;4.07;;;;;;;27.86;31.86;98474.25;4969859;28;20184;-58
2023/09/30 11:04:23;;;;;;;9.43;4.18;;;;;;;27.86;31.04;98463.59;4969415;28;20192;-57
2023/09/30 11:06:51;;;;;;;12.48;3.85;;;;;;;27.89;31.35;98476.50;4969625;28;20274;-58
2023/09/30 11:09:19;;;;;;;8.00;4.45;;;;;;;27.99;31.06;98476.03;4916428;29;20812;-57
2023/09/30 11:11:50;;;;;;;7.15;3.85;;;;;;;28.09;31.09;98479.84;4930868;29;20216;-57
2023/09/30 11:14:22;;;;;;;13.57;4.18;;;;;;;28.22;31.09;98487.75;4930871;29;20661;-57
2023/09/30 11:16:50;;;;;;;8.30;4.03;;;;;;;28.25;30.90;98497.97;4933515;29;20608;-59
2023/09/30 11:19:16;;;;;;;8.82;4.10;;;;;;;28.09;30.61;98444.44;4953224;28;20588;-57
2023/09/30 11:21:43;;;;;;;11.90;4.07;;;;;;;28.24;29.91;98444.94;5012380;28;20289;-58
2023/09/30 11:24:09;;;;;;;7.18;3.83;;;;;;;28.44;30.31;98470.44;4973172;28;20279;-58
2023/09/30 11:26:34;;;;;;;10.05;4.25;;;;;;;28.15;29.64;98449.72;4972981;28;20580;-58
2023/09/30 11:29:06;;;;;;;11.50;4.22;;;;;;;28.46;30.58;98479.00;4973324;28;20207;-58
2023/09/30 11:31:34;;;;;;;10.88;3.90;;;;;;;28.41;30.11;98432.78;4973229;28;20222;-58
2023/09/30 11:34:03;;;;;;;10.65;3.53;;;;;;;28.76;30.26;98463.19;4973229;28;20299;-57